Time;durP1;ratioP1;P1;durP2;ratioP2;P2;SDS_P1;SDS_P2;PMS_P1;PMS_P2;Temp;Humidity;BMP_temperature;BMP_pressure;BME280_temperature;BME280_humidity;BME280_pressure;Samples;Min_cycle;Max_cycle;Signal;HPM_P1;HPM_P2
2023/12/22 00:20:33;;;;;;;1.40;1.00;;;;;;;4.29;83.27;94209.30;105356;1260;642492;-77
2023/12/22 00:23:00;;;;;;;1.20;1.00;;;;;;;4.39;82.77;94211.23;107230;1241;120858;-76
2023/12/22 00:25:26;;;;;;;1.10;0.80;;;;;;;4.35;82.94;94224.52;107294;1246;95857;-76
2023/12/22 00:27:52;;;;;;;3.50;0.80;;;;;;;4.27;83.12;94223.22;107262;1254;95833;-76
2023/12/22 00:30:19;;;;;;;1.30;0.80;;;;;;;4.20;83.04;94208.34;107358;1247;95853;-76
2023/12/22 00:32:45;;;;;;;3.10;1.30;;;;;;;4.15;83.21;94203.11;107248;1254;95843;-73
2023/12/22 00:35:11;;;;;;;3.60;2.10;;;;;;;4.10;83.26;94205.35;107188;1241;96072;-76
2023/12/22 00:37:38;;;;;;;4.10;1.90;;;;;;;4.04;83.39;94203.50;107227;1253;96767;-77
2023/12/22 00:40:06;;;;;;;10.20;3.10;;;;;;;3.97;83.73;94215.48;107283;1241;96208;-76
2023/12/22 00:42:33;;;;;;;11.70;4.10;;;;;;;3.92;83.78;94219.16;107220;1248;97030;-76
2023/12/22 00:44:59;;;;;;;12.60;5.50;;;;;;;3.91;83.69;94246.69;107242;1253;97147;-76
2023/12/22 00:47:25;;;;;;;3.50;1.60;;;;;;;3.92;83.73;94273.55;107439;1243;95881;-77
2023/12/22 00:49:52;;;;;;;1.30;0.80;;;;;;;3.91;83.59;94283.30;107481;1248;95850;-77
2023/12/22 00:52:18;;;;;;;4.30;1.20;;;;;;;3.77;82.91;94288.33;107422;1243;95879;-77
2023/12/22 00:54:44;;;;;;;4.40;1.20;;;;;;;3.53;82.29;94292.11;107435;1251;95847;-73
2023/12/22 00:57:12;;;;;;;3.20;0.90;;;;;;;3.22;82.10;94292.73;107836;1242;95885;-74
2023/12/22 00:59:38;;;;;;;2.70;0.90;;;;;;;2.96;82.19;94288.04;107810;1247;95903;-73
2023/12/22 01:02:04;;;;;;;3.00;1.10;;;;;;;2.69;82.52;94279.29;107835;1235;95787;-76
2023/12/22 01:04:31;;;;;;;3.70;1.10;;;;;;;2.48;82.59;94279.17;107803;1239;95858;-76
2023/12/22 01:06:57;;;;;;;6.60;1.60;;;;;;;2.30;82.51;94280.02;107722;1240;96829;-76
2023/12/22 01:09:23;;;;;;;6.70;1.90;;;;;;;2.12;82.58;94279.14;107848;1235;95873;-77
2023/12/22 01:11:50;;;;;;;7.00;1.40;;;;;;;2.04;82.80;94269.36;107878;1241;95933;-77
2023/12/22 01:14:16;;;;;;;7.00;1.30;;;;;;;2.00;83.02;94268.05;107856;1242;96519;-74
2023/12/22 01:16:42;;;;;;;6.00;1.40;;;;;;;2.03;83.34;94267.95;107813;1240;95977;-76
2023/12/22 01:19:09;;;;;;;2.30;1.00;;;;;;;2.08;83.61;94262.08;107798;1238;97094;-77
2023/12/22 01:21:35;;;;;;;5.20;1.60;;;;;;;2.11;83.68;94260.23;107821;1245;95917;-76
2023/12/22 01:24:01;;;;;;;4.00;1.20;;;;;;;2.15;83.84;94265.44;107771;1240;95859;-79
2023/12/22 01:26:27;;;;;;;2.50;1.20;;;;;;;2.14;83.86;94277.06;107811;1241;96534;-78
2023/12/22 01:28:54;;;;;;;5.40;1.50;;;;;;;2.14;83.84;94271.91;107762;1239;95831;-79
2023/12/22 01:31:20;;;;;;;5.90;1.30;;;;;;;2.18;83.94;94277.51;107738;1240;95876;-77
2023/12/22 01:33:46;;;;;;;3.50;1.40;;;;;;;2.16;83.94;94278.86;107662;1241;95771;-76
2023/12/22 01:36:13;;;;;;;3.60;1.40;;;;;;;2.16;83.89;94280.23;107848;1241;96136;-74
2023/12/22 01:38:39;;;;;;;4.10;1.20;;;;;;;2.20;84.13;94281.20;107806;1240;96911;-75
2023/12/22 01:41:06;;;;;;;2.30;1.10;;;;;;;2.25;84.26;94274.84;107821;1245;95865;-74
2023/12/22 01:43:32;;;;;;;3.70;1.40;;;;;;;2.28;84.29;94269.26;107788;1240;96739;-74
2023/12/22 01:46:00;;;;;;;5.50;1.60;;;;;;;2.31;84.24;94292.40;107792;1239;95786;-69
2023/12/22 01:48:27;;;;;;;5.50;1.50;;;;;;;2.30;84.30;94315.32;107868;1240;95920;-70
2023/12/22 01:50:55;;;;;;;3.00;1.20;;;;;;;2.25;84.15;94337.38;107742;1247;95870;-74
2023/12/22 01:53:24;;;;;;;4.80;1.30;;;;;;;2.17;83.78;94364.58;107682;1240;95919;-74
2023/12/22 01:55:53;;;;;;;3.70;1.70;;;;;;;2.08;83.69;94370.89;107886;1239;96975;-74
2023/12/22 01:58:20;;;;;;;4.40;0.90;;;;;;;1.98;83.43;94378.02;107826;1239;100801;-74
2023/12/22 02:00:46;;;;;;;2.10;0.60;;;;;;;1.88;83.33;94375.08;107778;1235;95857;-78
2023/12/22 02:03:14;;;;;;;4.10;0.80;;;;;;;1.82;83.37;94367.27;107654;1241;96593;-78
2023/12/22 02:05:42;;;;;;;4.80;1.10;;;;;;;1.79;83.28;94341.65;107793;1245;96799;-78
2023/12/22 02:08:08;;;;;;;3.80;1.50;;;;;;;1.77;83.32;94319.79;107846;1241;95827;-78
2023/12/22 02:10:35;;;;;;;5.80;1.50;;;;;;;1.78;83.52;94316.75;107717;1234;96928;-73
2023/12/22 02:13:01;;;;;;;3.60;1.30;;;;;;;1.84;83.63;94321.95;107898;1235;95958;-73
2023/12/22 02:15:28;;;;;;;3.00;0.90;;;;;;;1.88;83.63;94326.23;107819;1240;96256;-73
2023/12/22 02:18:03;;;;;;;2.10;1.00;;;;;;;1.90;83.65;94326.68;107858;1235;95928;-73
2023/12/22 02:20:30;;;;;;;2.90;1.10;;;;;;;1.93;83.56;94333.97;107846;1235;100718;-73
2023/12/22 02:22:57;;;;;;;4.60;1.10;;;;;;;1.94;83.47;94332.50;107834;1247;95811;-73
2023/12/22 02:25:23;;;;;;;8.60;1.90;;;;;;;1.97;83.47;94329.95;107862;1238;95833;-73
2023/12/22 02:27:54;;;;;;;4.40;1.20;;;;;;;2.02;83.53;94323.96;107819;1240;95826;-73
2023/12/22 02:31:17;;;;;;;3.50;1.90;;;;;;;2.10;83.40;94332.15;107839;1247;95824;-74
2023/12/22 02:33:44;;;;;;;3.20;1.60;;;;;;;2.16;83.37;94339.69;107467;1241;100582;-68
2023/12/22 02:36:14;;;;;;;6.90;1.70;;;;;;;2.18;83.25;94338.39;107836;1238;99939;-69
2023/12/22 02:38:42;;;;;;;6.80;1.80;;;;;;;2.23;83.28;94331.67;107864;1245;99753;-69
2023/12/22 02:41:08;;;;;;;6.40;1.50;;;;;;;2.27;83.23;94326.98;107805;1245;96332;-68
2023/12/22 02:43:35;;;;;;;8.60;1.60;;;;;;;2.29;82.86;94321.55;107810;1239;95932;-68
2023/12/22 02:46:01;;;;;;;7.00;1.60;;;;;;;2.33;82.86;94322.05;107792;1238;96273;-68
2023/12/22 02:48:28;;;;;;;2.80;1.20;;;;;;;2.33;82.79;94322.50;107891;1241;95850;-74
2023/12/22 02:50:54;;;;;;;3.60;1.40;;;;;;;2.30;82.75;94321.77;107772;1235;97103;-74
2023/12/22 02:53:20;;;;;;;6.30;1.60;;;;;;;2.29;82.80;94315.31;107886;1241;95853;-74
2023/12/22 02:55:47;;;;;;;4.00;1.40;;;;;;;2.21;82.69;94304.80;107844;1248;95853;-74
2023/12/22 02:58:13;;;;;;;3.70;1.30;;;;;;;2.16;82.82;94324.93;107899;1246;96205;-74
2023/12/22 03:00:40;;;;;;;5.50;1.50;;;;;;;2.12;83.05;94330.49;107832;1238;96826;-73
2023/12/22 03:03:06;;;;;;;3.20;1.30;;;;;;;2.08;83.18;94338.05;107874;1247;95836;-73
2023/12/22 03:05:33;;;;;;;5.10;1.50;;;;;;;2.06;83.22;94340.78;107839;1245;96791;-73
2023/12/22 03:07:59;;;;;;;5.70;1.60;;;;;;;2.06;83.28;94332.69;107810;1236;95814;-74
2023/12/22 03:10:25;;;;;;;4.20;1.60;;;;;;;2.03;83.29;94330.05;107710;1249;95891;-73
2023/12/22 03:12:51;;;;;;;11.20;1.90;;;;;;;2.03;83.49;94324.20;107815;1239;95920;-73
2023/12/22 03:15:18;;;;;;;4.70;1.60;;;;;;;2.05;83.47;94315.23;107848;1241;96096;-73
2023/12/22 03:17:44;;;;;;;5.00;1.40;;;;;;;2.10;83.26;94320.45;107845;1244;96282;-73
2023/12/22 03:20:10;;;;;;;4.90;1.60;;;;;;;2.14;83.08;94333.03;107786;1240;96777;-72
2023/12/22 03:22:37;;;;;;;6.10;2.00;;;;;;;2.17;82.85;94341.23;107832;1239;96493;-72
2023/12/22 03:25:03;;;;;;;9.00;1.60;;;;;;;2.19;82.74;94341.76;107858;1238;97120;-73
2023/12/22 03:27:29;;;;;;;4.30;1.40;;;;;;;2.19;82.67;94348.73;107822;1238;95852;-78
2023/12/22 03:29:56;;;;;;;6.20;1.60;;;;;;;2.20;82.83;94349.86;107573;1249;97021;-78
2023/12/22 03:32:22;;;;;;;8.70;1.90;;;;;;;2.21;82.89;94346.70;107742;1240;95845;-78
2023/12/22 03:34:48;;;;;;;4.70;1.80;;;;;;;2.19;82.73;94337.83;107829;1246;96108;-78
2023/12/22 03:37:14;;;;;;;3.20;1.20;;;;;;;2.19;82.90;94341.13;107923;1247;95866;-79
2023/12/22 03:39:41;;;;;;;6.00;1.50;;;;;;;2.18;82.90;94343.06;107832;1247;97228;-77
2023/12/22 03:42:07;;;;;;;7.70;1.60;;;;;;;2.20;82.63;94343.10;107854;1238;95868;-78
2023/12/22 03:44:33;;;;;;;5.10;1.40;;;;;;;2.21;82.49;94322.05;107857;1238;96723;-78
2023/12/22 03:47:00;;;;;;;5.20;1.60;;;;;;;2.24;82.38;94333.05;107730;1235;96796;-69
2023/12/22 03:49:26;;;;;;;2.00;1.30;;;;;;;2.27;82.13;94340.77;107837;1238;95919;-68
2023/12/22 03:51:52;;;;;;;4.00;1.60;;;;;;;2.28;81.92;94327.81;107841;1236;96791;-69
2023/12/22 03:54:18;;;;;;;3.90;1.10;;;;;;;2.27;81.44;94327.04;107830;1238;95821;-69
2023/12/22 03:56:45;;;;;;;1.40;1.00;;;;;;;2.31;80.81;94320.73;107955;1238;96124;-68
2023/12/22 03:59:11;;;;;;;5.20;1.90;;;;;;;2.34;80.85;94335.05;107845;1248;97075;-68
2023/12/22 04:01:37;;;;;;;3.60;1.80;;;;;;;2.35;80.53;94339.82;107882;1239;95895;-69
2023/12/22 04:04:04;;;;;;;4.90;1.50;;;;;;;2.38;79.56;94355.80;107836;1244;95830;-69
2023/12/22 04:06:30;;;;;;;2.90;1.10;;;;;;;2.42;79.78;94340.42;107863;1235;96471;-69
2023/12/22 04:08:56;;;;;;;4.70;1.60;;;;;;;2.42;79.55;94344.48;107825;1238;95805;-69
2023/12/22 04:11:23;;;;;;;5.10;1.60;;;;;;;2.42;79.28;94342.30;107835;1242;95904;-68
2023/12/22 04:13:49;;;;;;;6.20;1.60;;;;;;;2.42;78.87;94353.73;107835;1240;95823;-69
2023/12/22 04:16:15;;;;;;;4.00;1.00;;;;;;;2.44;77.11;94347.50;107820;1247;95821;-74
2023/12/22 04:18:42;;;;;;;8.80;2.20;;;;;;;2.47;76.38;94343.30;107757;1240;95899;-74
2023/12/22 04:21:08;;;;;;;8.20;2.10;;;;;;;2.50;76.52;94358.41;107799;1241;95836;-75
2023/12/22 04:23:36;;;;;;;10.00;1.90;;;;;;;2.55;76.00;94362.84;107854;1244;95853;-75
2023/12/22 04:26:02;;;;;;;11.20;1.70;;;;;;;2.61;75.76;94364.46;107804;1240;96563;-70
2023/12/22 04:28:29;;;;;;;7.70;1.40;;;;;;;2.66;75.31;94362.75;107826;1248;96578;-69
2023/12/22 04:30:55;;;;;;;5.30;1.50;;;;;;;2.69;74.83;94358.88;107821;1245;97055;-69
2023/12/22 04:33:21;;;;;;;12.40;2.40;;;;;;;2.72;73.99;94350.10;107772;1242;96563;-69
2023/12/22 04:35:48;;;;;;;6.50;1.70;;;;;;;2.73;73.92;94351.98;107802;1247;97660;-69
2023/12/22 04:38:14;;;;;;;5.40;1.60;;;;;;;2.77;73.74;94362.50;107899;1240;97479;-69
2023/12/22 04:40:40;;;;;;;8.50;1.50;;;;;;;2.76;72.91;94358.38;107874;1247;97062;-69
2023/12/22 04:43:06;;;;;;;10.00;1.60;;;;;;;2.77;73.88;94347.30;107834;1248;97680;-69
2023/12/22 04:45:33;;;;;;;4.60;1.50;;;;;;;2.82;74.28;94346.13;107844;1235;96677;-75
2023/12/22 04:47:59;;;;;;;8.00;1.50;;;;;;;2.82;73.91;94348.20;107824;1235;97162;-69
2023/12/22 04:50:25;;;;;;;4.30;1.70;;;;;;;2.79;73.50;94341.05;107798;1240;97540;-69
2023/12/22 04:52:51;;;;;;;5.70;1.60;;;;;;;2.75;73.89;94336.52;107829;1235;96589;-69
2023/12/22 04:55:18;;;;;;;6.10;1.60;;;;;;;2.69;74.20;94334.58;107805;1241;97476;-69
2023/12/22 04:57:44;;;;;;;6.40;1.90;;;;;;;2.65;73.92;94339.52;107879;1244;96599;-69
2023/12/22 05:00:11;;;;;;;8.80;1.90;;;;;;;2.57;72.85;94339.88;107809;1235;97001;-69
2023/12/22 05:02:37;;;;;;;11.20;1.90;;;;;;;2.53;72.89;94334.17;107789;1235;97100;-71
2023/12/22 05:05:04;;;;;;;7.80;1.90;;;;;;;2.49;72.12;94338.77;107830;1240;97797;-74
2023/12/22 05:07:30;;;;;;;8.80;1.80;;;;;;;2.45;72.33;94344.42;107865;1245;96566;-75
2023/12/22 05:09:57;;;;;;;6.00;2.20;;;;;;;2.42;72.77;94349.48;107812;1240;97089;-75
2023/12/22 05:12:23;;;;;;;7.30;2.00;;;;;;;2.41;73.00;94350.53;107824;1240;96553;-76
2023/12/22 05:14:49;;;;;;;10.20;2.40;;;;;;;2.39;73.13;94350.98;107830;1245;97436;-75
2023/12/22 05:17:15;;;;;;;7.30;2.00;;;;;;;2.39;73.37;94350.20;107901;1240;97708;-79
2023/12/22 05:19:42;;;;;;;9.90;2.40;;;;;;;2.41;73.59;94351.23;107842;1241;97781;-78
2023/12/22 05:22:08;;;;;;;7.00;1.90;;;;;;;2.41;73.30;94352.45;107876;1247;97669;-78
2023/12/22 05:24:34;;;;;;;5.20;2.10;;;;;;;2.35;73.26;94361.60;107685;1240;97831;-79
2023/12/22 05:27:02;;;;;;;6.90;2.00;;;;;;;2.33;73.41;94360.20;107824;1247;96775;-79
2023/12/22 05:29:28;;;;;;;7.30;2.20;;;;;;;2.30;73.44;94357.21;107815;1235;97883;-78
2023/12/22 05:31:55;;;;;;;7.30;2.30;;;;;;;2.29;73.51;94349.70;107809;1239;97769;-79
2023/12/22 05:34:21;;;;;;;7.00;2.10;;;;;;;2.29;73.79;94357.00;107802;1239;97225;-79
2023/12/22 05:36:47;;;;;;;8.00;2.50;;;;;;;2.26;73.79;94358.27;107838;1248;96992;-79
2023/12/22 05:39:14;;;;;;;6.70;2.30;;;;;;;2.25;73.60;94357.77;107793;1240;98233;-79
2023/12/22 05:41:41;;;;;;;7.20;2.20;;;;;;;2.23;73.55;94359.09;107786;1241;97787;-79
2023/12/22 05:44:07;;;;;;;10.00;2.50;;;;;;;2.24;73.68;94364.77;107690;1239;96992;-78
2023/12/22 05:46:38;;;;;;;10.70;2.80;;;;;;;2.27;73.83;94374.05;107564;1241;96566;-73
2023/12/22 05:49:04;;;;;;;11.50;3.90;;;;;;;2.30;73.72;94376.39;107784;1242;97119;-73
2023/12/22 05:51:38;;;;;;;13.10;4.10;;;;;;;2.32;73.91;94377.34;107820;1247;97442;-73
2023/12/22 05:54:05;;;;;;;7.00;2.70;;;;;;;2.35;74.10;94373.61;107851;1238;101372;-73
2023/12/22 05:56:33;;;;;;;10.50;2.90;;;;;;;2.34;73.75;94372.36;107792;1250;99955;-73
2023/12/22 05:59:00;;;;;;;10.50;2.80;;;;;;;2.29;73.68;94370.58;107795;1240;97789;-73
2023/12/22 06:01:26;;;;;;;10.10;3.70;;;;;;;2.26;73.99;94375.30;107812;1240;96573;-79
2023/12/22 06:03:54;;;;;;;9.10;2.90;;;;;;;2.22;74.29;94376.44;107875;1240;97507;-79
2023/12/22 06:06:21;;;;;;;17.80;7.00;;;;;;;2.20;74.40;94384.73;107839;1241;96572;-79
2023/12/22 06:08:47;;;;;;;9.60;3.70;;;;;;;2.19;74.83;94383.48;107789;1247;97813;-79
2023/12/22 06:11:14;;;;;;;14.60;6.30;;;;;;;2.14;75.03;94395.46;107882;1235;97485;-79
2023/12/22 06:13:41;;;;;;;10.20;3.50;;;;;;;2.12;75.23;94404.73;107785;1241;109057;-79
2023/12/22 06:16:11;;;;;;;13.10;4.60;;;;;;;2.11;75.54;94415.77;107852;1239;96602;-78
2023/12/22 06:18:38;;;;;;;8.20;3.10;;;;;;;2.10;75.53;94416.77;107827;1235;99749;-79
2023/12/22 06:21:04;;;;;;;9.60;3.90;;;;;;;2.09;75.56;94420.80;107818;1240;96662;-79
2023/12/22 06:23:30;;;;;;;12.40;4.80;;;;;;;2.06;75.85;94446.27;107802;1247;97088;-78
2023/12/22 06:25:57;;;;;;;10.40;2.40;;;;;;;2.06;74.96;94481.92;107880;1250;97351;-80
2023/12/22 06:28:23;;;;;;;7.80;1.90;;;;;;;2.11;73.63;94502.68;107782;1240;99985;-79
2023/12/22 06:30:49;;;;;;;9.40;1.90;;;;;;;2.18;72.30;94510.51;107779;1245;97340;-79
2023/12/22 06:33:15;;;;;;;13.80;2.20;;;;;;;2.23;72.29;94504.37;107703;1241;97660;-79
2023/12/22 06:35:42;;;;;;;10.00;2.40;;;;;;;2.27;71.43;94502.96;107901;1247;96803;-79
2023/12/22 06:38:08;;;;;;;12.00;2.60;;;;;;;2.27;71.28;94499.77;107749;1250;99889;-79
2023/12/22 06:40:35;;;;;;;10.90;3.40;;;;;;;2.26;70.79;94507.27;107518;1240;97461;-74
2023/12/22 06:43:01;;;;;;;11.00;2.20;;;;;;;2.26;69.84;94502.89;107792;1247;97459;-74
2023/12/22 06:45:27;;;;;;;16.10;2.70;;;;;;;2.24;69.34;94505.08;107726;1241;96575;-75
2023/12/22 06:47:54;;;;;;;12.10;2.60;;;;;;;2.24;69.44;94506.29;107755;1240;100056;-76
2023/12/22 06:50:20;;;;;;;15.50;2.80;;;;;;;2.21;68.62;94512.05;107789;1247;96726;-76
2023/12/22 06:52:46;;;;;;;15.80;4.20;;;;;;;2.17;68.46;94512.98;107822;1242;97222;-75
2023/12/22 06:55:13;;;;;;;18.00;4.80;;;;;;;2.17;68.28;94513.58;107878;1250;97465;-75
2023/12/22 06:57:39;;;;;;;17.50;5.60;;;;;;;2.16;67.83;94509.25;107803;1241;99914;-75
2023/12/22 07:00:07;;;;;;;11.80;3.80;;;;;;;2.15;67.43;94508.40;107838;1239;96979;-75
2023/12/22 07:02:33;;;;;;;13.40;3.80;;;;;;;2.19;67.67;94511.55;107782;1239;97810;-75
2023/12/22 07:05:12;;;;;;;8.50;2.80;;;;;;;2.23;67.34;94524.31;107773;1240;96541;-77
2023/12/22 07:07:39;;;;;;;15.00;3.70;;;;;;;2.22;66.67;94524.94;107801;1235;101246;-76
2023/12/22 07:10:05;;;;;;;14.10;2.80;;;;;;;2.23;67.24;94527.79;107766;1240;96640;-75
2023/12/22 07:12:32;;;;;;;11.20;2.60;;;;;;;2.31;67.39;94525.09;107764;1241;96602;-75
2023/12/22 07:14:58;;;;;;;10.30;2.40;;;;;;;2.33;66.64;94521.40;107848;1235;97810;-75
2023/12/22 07:17:24;;;;;;;13.80;3.70;;;;;;;2.31;65.95;94531.54;107799;1240;101300;-75
2023/12/22 07:19:52;;;;;;;12.10;3.50;;;;;;;2.29;65.95;94524.63;107741;1248;96547;-75
2023/12/22 07:22:18;;;;;;;10.80;2.70;;;;;;;2.23;65.07;94523.36;107796;1247;96549;-75
2023/12/22 07:24:44;;;;;;;13.50;4.00;;;;;;;2.21;65.22;94523.08;107820;1241;96517;-75
2023/12/22 07:27:11;;;;;;;18.20;6.30;;;;;;;2.17;64.93;94521.98;107951;1250;97697;-75
2023/12/22 07:29:37;;;;;;;11.70;4.10;;;;;;;2.13;64.81;94528.61;107798;1240;98838;-75
2023/12/22 07:32:03;;;;;;;16.20;5.00;;;;;;;2.11;65.19;94524.45;107796;1242;96553;-75
2023/12/22 07:34:30;;;;;;;15.70;3.80;;;;;;;2.08;64.61;94523.69;107779;1241;96550;-75
2023/12/22 07:36:56;;;;;;;16.40;4.10;;;;;;;2.08;63.87;94536.34;107877;1236;96630;-75
2023/12/22 07:39:22;;;;;;;15.90;4.00;;;;;;;2.07;64.19;94540.52;107773;1245;100237;-75
2023/12/22 07:41:48;;;;;;;11.10;4.90;;;;;;;2.04;63.95;94542.42;107801;1245;96643;-75
2023/12/22 07:44:15;;;;;;;13.70;3.40;;;;;;;2.00;63.82;94542.59;107837;1247;97448;-75
2023/12/22 07:46:41;;;;;;;15.50;4.50;;;;;;;2.04;64.38;94530.83;107874;1240;96665;-71
2023/12/22 07:49:07;;;;;;;15.00;3.90;;;;;;;2.08;65.03;94526.98;107787;1241;99801;-70
2023/12/22 07:51:34;;;;;;;31.70;13.80;;;;;;;2.11;64.87;94531.54;107751;1245;96867;-70
2023/12/22 07:54:00;;;;;;;13.00;4.30;;;;;;;2.09;63.94;94534.30;107793;1239;96579;-70
2023/12/22 07:56:27;;;;;;;12.50;3.40;;;;;;;2.09;64.33;94535.20;107859;1238;97599;-75
2023/12/22 07:58:54;;;;;;;13.70;4.60;;;;;;;2.08;64.49;94536.41;107699;1248;99505;-75
2023/12/22 08:01:20;;;;;;;13.70;5.40;;;;;;;2.07;64.48;94534.78;107746;1240;97062;-74
2023/12/22 08:03:47;;;;;;;16.10;5.40;;;;;;;2.08;64.65;94547.35;107846;1249;96788;-75
2023/12/22 08:06:14;;;;;;;17.60;5.80;;;;;;;2.07;64.53;94547.29;107839;1240;96476;-75
2023/12/22 08:08:40;;;;;;;23.00;8.10;;;;;;;2.09;64.36;94544.14;107864;1247;97788;-75
2023/12/22 08:11:08;;;;;;;15.60;5.50;;;;;;;2.11;64.05;94546.80;107814;1240;97815;-74
2023/12/22 08:13:34;;;;;;;22.20;9.40;;;;;;;2.15;64.00;94548.23;107828;1241;97155;-75
2023/12/22 08:16:00;;;;;;;26.40;9.90;;;;;;;2.22;64.58;94548.98;107791;1248;97046;-74
2023/12/22 08:18:27;;;;;;;18.40;7.00;;;;;;;2.24;64.41;94547.50;107756;1241;96672;-70
2023/12/22 08:20:53;;;;;;;17.70;5.70;;;;;;;2.29;63.60;94549.11;107856;1238;96562;-70
2023/12/22 08:23:21;;;;;;;16.70;6.10;;;;;;;2.33;63.24;94553.41;107869;1235;97091;-71
2023/12/22 08:25:47;;;;;;;15.00;6.10;;;;;;;2.40;63.90;94556.41;107823;1241;102118;-70
2023/12/22 08:28:14;;;;;;;10.30;3.40;;;;;;;2.44;63.25;94556.88;107816;1241;97134;-70
2023/12/22 08:30:41;;;;;;;6.60;2.60;;;;;;;2.52;63.52;94552.70;107820;1241;96697;-70
2023/12/22 08:33:07;;;;;;;17.20;6.00;;;;;;;2.62;63.82;94557.41;107896;1234;96792;-80
2023/12/22 08:35:34;;;;;;;15.90;4.50;;;;;;;2.73;64.10;94553.23;107811;1244;102259;-80
2023/12/22 08:38:01;;;;;;;26.40;11.50;;;;;;;2.84;64.02;94547.46;107791;1247;97455;-80
2023/12/22 08:40:27;;;;;;;51.80;19.80;;;;;;;2.94;63.87;94542.77;107829;1247;96675;-80
2023/12/22 08:42:56;;;;;;;33.90;14.20;;;;;;;3.01;64.30;94545.26;107772;1240;96684;-81
2023/12/22 08:45:23;;;;;;;35.00;14.80;;;;;;;3.07;63.84;94548.17;107948;1239;97348;-80
2023/12/22 08:47:49;;;;;;;31.30;14.30;;;;;;;3.12;63.86;94551.59;107949;1240;96892;-80
2023/12/22 08:50:15;;;;;;;21.70;10.80;;;;;;;3.14;63.80;94555.26;108038;1245;97787;-80
2023/12/22 08:52:42;;;;;;;16.10;6.90;;;;;;;3.16;64.00;94549.33;107778;1240;96545;-80
2023/12/22 08:55:08;;;;;;;25.40;11.90;;;;;;;3.20;63.89;94547.27;107692;1239;96682;-75
2023/12/22 08:57:34;;;;;;;13.60;6.00;;;;;;;3.22;63.36;94537.56;107686;1244;96630;-75
2023/12/22 09:00:00;;;;;;;12.20;5.90;;;;;;;3.20;62.15;94532.23;107876;1247;97587;-75
2023/12/22 09:02:27;;;;;;;13.50;6.00;;;;;;;3.17;62.00;94530.84;107808;1235;96668;-70
2023/12/22 09:04:53;;;;;;;10.80;4.30;;;;;;;3.19;62.33;94526.90;107847;1238;97011;-70
2023/12/22 09:07:20;;;;;;;12.20;5.90;;;;;;;3.21;62.53;94528.36;107815;1240;97343;-71
2023/12/22 09:09:46;;;;;;;10.60;4.30;;;;;;;3.23;63.03;94530.94;107865;1241;96791;-70
2023/12/22 09:12:12;;;;;;;12.60;6.60;;;;;;;3.30;63.21;94524.86;107803;1240;96636;-70
2023/12/22 09:14:39;;;;;;;22.10;9.60;;;;;;;3.34;63.33;94526.83;107889;1241;97826;-76
2023/12/22 09:17:05;;;;;;;22.20;9.30;;;;;;;3.34;63.28;94523.02;107773;1241;97475;-70
2023/12/22 09:19:38;;;;;;;14.40;6.50;;;;;;;3.36;63.27;94527.08;107966;1237;97825;-71
2023/12/22 09:22:05;;;;;;;8.90;3.50;;;;;;;3.37;63.55;94527.67;107891;1241;97731;-70
2023/12/22 09:24:31;;;;;;;5.50;2.00;;;;;;;3.38;63.76;94522.89;107824;1247;96556;-70
2023/12/22 09:27:02;;;;;;;5.20;1.80;;;;;;;3.40;63.88;94526.86;107801;1240;96794;-70
2023/12/22 09:29:30;;;;;;;3.80;1.70;;;;;;;3.39;63.55;94527.66;107395;1245;100466;-70
2023/12/22 09:31:56;;;;;;;7.40;2.80;;;;;;;3.37;63.62;94531.73;107753;1247;96576;-75
2023/12/22 09:34:23;;;;;;;9.90;4.10;;;;;;;3.36;63.69;94542.80;107805;1240;96549;-75
2023/12/22 09:36:49;;;;;;;7.60;2.20;;;;;;;3.33;63.84;94549.20;107816;1239;97782;-76
2023/12/22 09:39:16;;;;;;;6.40;2.00;;;;;;;3.27;64.24;94549.98;107741;1245;96919;-75
2023/12/22 09:41:49;;;;;;;3.30;1.50;;;;;;;3.18;64.57;94558.64;107844;1240;99532;-75
2023/12/22 09:44:20;;;;;;;10.00;2.80;;;;;;;3.09;64.75;94569.31;107799;1241;96586;-74
2023/12/22 09:46:49;;;;;;;9.60;2.50;;;;;;;3.03;64.98;94576.21;107714;1240;96488;-69
2023/12/22 09:49:18;;;;;;;4.10;1.70;;;;;;;2.93;65.32;94585.70;107810;1240;100794;-70
2023/12/22 09:51:45;;;;;;;5.60;2.10;;;;;;;2.82;66.17;94586.24;107895;1247;101213;-74
2023/12/22 09:54:13;;;;;;;9.90;3.50;;;;;;;2.66;67.72;94582.41;107791;1247;96622;-74
2023/12/22 09:56:42;;;;;;;15.90;5.50;;;;;;;2.47;68.41;94577.44;107830;1241;96540;-74
2023/12/22 09:59:12;;;;;;;15.90;5.80;;;;;;;2.30;70.28;94581.19;107847;1241;97065;-74
2023/12/22 10:01:45;;;;;;;21.50;5.90;;;;;;;2.15;70.06;94583.73;107920;1240;102011;-74
2023/12/22 10:04:13;;;;;;;29.40;9.00;;;;;;;2.06;70.46;94585.70;107849;1248;100222;-74
2023/12/22 10:06:40;;;;;;;39.40;13.30;;;;;;;2.00;70.82;94579.61;107781;1241;99798;-74
2023/12/22 10:09:08;;;;;;;23.30;10.50;;;;;;;1.94;71.23;94569.38;107874;1240;96542;-74
2023/12/22 10:11:37;;;;;;;15.40;5.70;;;;;;;1.90;71.69;94564.70;107801;1248;96996;-74
2023/12/22 10:14:05;;;;;;;11.00;4.70;;;;;;;1.91;72.04;94563.70;107900;1240;102088;-74
2023/12/22 10:16:31;;;;;;;6.80;2.80;;;;;;;1.91;72.37;94563.38;107813;1240;102085;-80
2023/12/22 10:19:00;;;;;;;7.80;2.20;;;;;;;1.89;72.86;94552.67;107801;1248;96786;-79
2023/12/22 10:21:26;;;;;;;8.30;3.20;;;;;;;1.89;73.27;94549.60;107787;1235;97357;-80
2023/12/22 10:23:52;;;;;;;5.10;2.20;;;;;;;1.97;73.36;94554.27;107823;1240;97209;-79
2023/12/22 10:26:19;;;;;;;8.80;3.60;;;;;;;1.95;73.49;94556.88;107860;1248;96518;-79
2023/12/22 10:28:48;;;;;;;6.70;3.00;;;;;;;1.90;73.53;94546.80;107721;1248;96546;-79
2023/12/22 10:31:14;;;;;;;26.30;11.70;;;;;;;1.93;73.38;94550.48;107721;1240;96575;-75
2023/12/22 10:33:43;;;;;;;17.20;7.50;;;;;;;1.95;73.47;94555.31;107790;1241;96800;-74
2023/12/22 10:36:10;;;;;;;12.70;5.20;;;;;;;1.95;73.27;94549.95;107837;1241;100776;-74
2023/12/22 10:38:37;;;;;;;12.00;6.20;;;;;;;1.89;73.25;94555.77;107843;1235;97637;-75
2023/12/22 10:41:05;;;;;;;21.30;9.90;;;;;;;1.83;73.33;94563.48;107768;1247;97448;-74
2023/12/22 10:43:38;;;;;;;23.90;9.60;;;;;;;1.76;73.89;94561.66;108041;1237;96608;-74
2023/12/22 10:46:05;;;;;;;16.10;6.30;;;;;;;1.73;74.02;94566.19;107906;1238;97075;-79
2023/12/22 10:48:32;;;;;;;12.70;5.90;;;;;;;1.70;74.50;94563.03;108033;1237;96535;-79
2023/12/22 10:50:58;;;;;;;20.70;8.80;;;;;;;1.68;74.09;94560.59;107967;1244;96623;-75
2023/12/22 10:53:25;;;;;;;23.30;10.90;;;;;;;1.70;74.04;94561.80;107999;1247;96648;-75
2023/12/22 10:55:52;;;;;;;10.10;4.60;;;;;;;1.73;74.31;94563.90;108075;1238;97468;-74
2023/12/22 10:58:18;;;;;;;8.60;4.40;;;;;;;1.69;74.45;94566.09;108050;1241;101721;-74
2023/12/22 11:00:51;;;;;;;7.30;3.50;;;;;;;1.67;74.35;94566.58;108031;1241;97045;-75
2023/12/22 11:03:18;;;;;;;14.60;6.00;;;;;;;1.66;74.26;94561.92;107963;1245;99484;-75
2023/12/22 11:05:48;;;;;;;18.20;9.00;;;;;;;1.72;74.17;94556.66;108067;1237;97838;-75
2023/12/22 11:08:15;;;;;;;17.90;8.70;;;;;;;1.78;74.58;94555.98;108056;1232;97056;-75
2023/12/22 11:10:44;;;;;;;10.60;4.80;;;;;;;1.83;74.78;94548.63;108041;1244;100625;-75
2023/12/22 11:13:12;;;;;;;7.00;4.10;;;;;;;1.84;74.73;94539.19;107987;1232;99829;-75
2023/12/22 11:15:40;;;;;;;9.30;3.80;;;;;;;1.85;75.67;94537.05;107967;1238;98878;-75
2023/12/22 11:18:08;;;;;;;9.80;4.20;;;;;;;1.83;75.90;94527.83;107951;1242;97096;-75
2023/12/22 11:20:37;;;;;;;8.60;4.40;;;;;;;1.79;76.06;94520.95;108108;1237;96546;-75
2023/12/22 11:23:05;;;;;;;11.10;6.20;;;;;;;1.75;76.25;94519.35;108110;1237;101145;-76
2023/12/22 11:25:33;;;;;;;11.10;6.30;;;;;;;1.70;76.59;94517.63;108139;1238;101203;-74
2023/12/22 11:28:01;;;;;;;15.10;8.90;;;;;;;1.67;76.94;94508.61;108111;1244;99746;-74
2023/12/22 11:30:29;;;;;;;16.50;7.80;;;;;;;1.61;77.40;94505.57;108016;1236;97079;-73
2023/12/22 11:32:57;;;;;;;13.00;6.40;;;;;;;1.57;77.48;94498.24;108161;1237;96966;-73
2023/12/22 11:35:24;;;;;;;14.40;6.70;;;;;;;1.55;77.65;94496.14;108004;1244;102119;-73
2023/12/22 11:37:51;;;;;;;15.40;6.90;;;;;;;1.58;77.57;94493.79;107971;1238;96543;-74
2023/12/22 11:40:17;;;;;;;11.10;6.30;;;;;;;1.60;77.66;94489.49;108074;1238;96799;-74
2023/12/22 11:42:48;;;;;;;11.90;6.10;;;;;;;1.63;77.98;94477.19;108007;1238;96541;-74
2023/12/22 11:45:16;;;;;;;15.40;6.70;;;;;;;1.65;77.98;94472.91;108036;1238;97107;-73
2023/12/22 11:47:42;;;;;;;15.80;7.30;;;;;;;1.64;77.88;94470.35;107809;1238;102176;-78